Time;durP1;ratioP1;P1;durP2;ratioP2;P2;SDS_P1;SDS_P2;PMS_P1;PMS_P2;Temp;Humidity;BMP_temperature;BMP_pressure;BME280_temperature;BME280_humidity;BME280_pressure;Samples;Min_cycle;Max_cycle;Signal;HPM_P1;HPM_P2
2023/01/23 00:02:03;;;;;;;;;;;;;;;-3.28;83.06;102085.31;5063679;28;19990;-69
2023/01/23 00:04:29;;;;;;;;;;;;;;;-3.24;83.31;102087.75;5066673;28;20344;-70
2023/01/23 00:06:54;;;;;;;;;;;;;;;-3.25;83.33;102078.84;5047142;28;19928;-70
2023/01/23 00:09:20;;;;;;;;;;;;;;;-3.21;83.49;102084.81;5048154;28;20404;-70
2023/01/23 00:11:46;;;;;;;;;;;;;;;-3.19;83.32;102075.69;5061722;28;19928;-70
2023/01/23 00:14:12;;;;;;;;;;;;;;;-3.15;83.20;102082.47;5063443;28;19936;-70
2023/01/23 00:16:39;;;;;;;;;;;;;;;-3.19;83.10;102075.69;5066679;28;19928;-74
2023/01/23 00:19:08;;;;;;;;;;;;;;;-3.17;83.23;102068.38;5063500;28;20014;-74
2023/01/23 00:21:34;;;;;;;;;;;;;;;-3.22;83.17;102077.75;5066030;28;19928;-74
2023/01/23 00:24:01;;;;;;;;;;;;;;;-3.27;83.03;102080.81;5046880;28;19975;-74
2023/01/23 00:26:27;;;;;;;;;;;;;;;-3.31;83.28;102080.19;5064037;28;19928;-73
2023/01/23 00:28:54;;;;;;;;;;;;;;;-3.31;83.29;102077.53;5065686;28;19932;-74
2023/01/23 00:31:20;;;;;;;;;;;;;;;-3.31;83.18;102079.38;5068448;28;20071;-74
2023/01/23 00:33:52;;;;;;;;;;;;;;;-3.32;83.31;102075.81;5064381;28;19935;-74
2023/01/23 00:36:22;;;;;;;;;;;;;;;-3.36;83.13;102077.06;5048232;28;19932;-74
2023/01/23 00:38:48;;;;;;;;;;;;;;;-3.35;83.44;102080.59;5066158;28;19958;-74
2023/01/23 00:41:13;;;;;;;;;;;;;;;-3.34;83.20;102083.13;5063953;28;19932;-74
2023/01/23 00:43:39;;;;;;;;;;;;;;;-3.35;83.44;102081.44;5047741;28;19943;-74
2023/01/23 00:46:05;;;;;;;;;;;;;;;-3.36;83.45;102085.09;5065661;28;19928;-74
2023/01/23 00:48:32;;;;;;;;;;;;;;;-3.37;83.25;102094.09;5065301;28;20417;-74
2023/01/23 00:50:58;;;;;;;;;;;;;;;-3.35;83.46;102091.31;5065900;28;19928;-75
2023/01/23 00:53:25;;;;;;;;;;;;;;;-3.34;83.20;102093.00;5064009;28;19997;-74
2023/01/23 00:55:52;;;;;;;;;;;;;;;-3.39;83.25;102088.03;5063385;28;19929;-74
2023/01/23 00:58:18;;;;;;;;;;;;;;;-3.44;83.42;102090.22;5063281;28;20383;-74
2023/01/23 01:00:44;;;;;;;;;;;;;;;-3.38;84.01;102094.22;5081461;28;19981;-74
2023/01/23 01:03:10;;;;;;;;;;;;;;;-3.32;83.72;102091.06;5048126;28;19932;-74
2023/01/23 01:05:36;;;;;;;;;;;;;;;-3.25;83.57;102092.22;5063288;28;19928;-74
2023/01/23 01:08:02;;;;;;;;;;;;;;;-3.22;83.39;102096.50;5062483;28;20410;-71
2023/01/23 01:10:31;;;;;;;;;;;;;;;-3.19;83.27;102101.56;5063452;28;19967;-71
2023/01/23 01:12:58;;;;;;;;;;;;;;;-3.18;83.26;102097.91;5062940;28;19928;-71
2023/01/23 01:15:23;;;;;;;;;;;;;;;-3.16;83.08;102099.50;5045001;28;19947;-71
2023/01/23 01:17:52;;;;;;;;;;;;;;;-3.11;82.85;102099.13;5064621;28;20016;-71
2023/01/23 01:20:18;;;;;;;;;;;;;;;-3.15;82.64;102097.66;5049434;28;19928;-70
2023/01/23 01:22:45;;;;;;;;;;;;;;;-3.15;82.63;102095.84;5061754;28;19963;-73
2023/01/23 01:25:11;;;;;;;;;;;;;;;-3.12;82.58;102108.13;5027463;28;20387;-74
2023/01/23 01:27:40;;;;;;;;;;;;;;;-3.18;82.29;102106.81;5062073;28;19951;-74
2023/01/23 01:30:07;;;;;;;;;;;;;;;-3.25;82.14;102102.94;5046243;28;19932;-73
2023/01/23 01:32:35;;;;;;;;;;;;;;;-3.27;82.36;102096.88;5064887;28;20455;-70
2023/01/23 01:35:01;;;;;;;;;;;;;;;-3.29;82.46;102099.66;5064846;28;19928;-69
2023/01/23 01:37:26;;;;;;;;;;;;;;;-3.34;82.54;102099.19;5046258;28;20362;-70
2023/01/23 01:39:52;;;;;;;;;;;;;;;-3.28;82.60;102104.06;5061556;28;19983;-74
2023/01/23 01:42:19;;;;;;;;;;;;;;;-3.24;82.32;102109.97;5065114;28;19932;-73
2023/01/23 01:44:52;;;;;;;;;;;;;;;-3.26;82.24;102101.22;5046494;28;20022;-74
2023/01/23 01:47:17;;;;;;;;;;;;;;;-3.30;82.08;102105.16;5060710;28;19932;-75
2023/01/23 01:49:43;;;;;;;;;;;;;;;-3.36;82.23;102108.31;5062580;28;20335;-74
2023/01/23 01:52:11;;;;;;;;;;;;;;;-3.40;82.57;102098.84;5064102;28;20159;-74
2023/01/23 01:54:40;;;;;;;;;;;;;;;-3.42;82.49;102110.53;5066137;28;19936;-73
2023/01/23 01:57:08;;;;;;;;;;;;;;;-3.42;82.65;102101.66;5064885;28;20297;-73
2023/01/23 01:59:35;;;;;;;;;;;;;;;-3.46;82.89;102098.38;5046707;28;19928;-73
2023/01/23 02:02:07;;;;;;;;;;;;;;;-3.47;82.54;102104.72;5061169;28;20404;-74
2023/01/23 02:04:35;;;;;;;;;;;;;;;-3.48;82.63;102102.16;5062269;28;19933;-74
2023/01/23 02:07:04;;;;;;;;;;;;;;;-3.45;82.80;102110.78;5063524;28;19981;-73
2023/01/23 02:09:32;;;;;;;;;;;;;;;-3.39;82.65;102098.72;5045187;28;19937;-74
2023/01/23 02:11:58;;;;;;;;;;;;;;;-3.37;82.50;102106.63;5063721;28;19928;-73
2023/01/23 02:14:24;;;;;;;;;;;;;;;-3.45;82.56;102096.53;5061582;28;19929;-74
2023/01/23 02:16:51;;;;;;;;;;;;;;;-3.45;82.87;102102.75;5063604;28;19928;-76
2023/01/23 02:19:30;;;;;;;;;;;;;;;-3.36;82.79;102092.25;5061545;28;20047;-73
2023/01/23 02:22:00;;;;;;;;;;;;;;;-3.34;82.57;102099.19;5063759;28;19929;-74
2023/01/23 02:24:30;;;;;;;;;;;;;;;-3.29;82.51;102094.28;5063730;28;20486;-74
2023/01/23 02:26:58;;;;;;;;;;;;;;;-3.23;82.31;102087.59;5045211;28;20186;-74
2023/01/23 02:29:25;;;;;;;;;;;;;;;-3.23;82.28;102087.59;5045517;28;20217;-74
2023/01/23 02:31:54;;;;;;;;;;;;;;;-3.21;82.13;102087.47;5065612;28;19935;-74
2023/01/23 02:34:22;;;;;;;;;;;;;;;-3.23;82.18;102090.28;5047987;28;19983;-74
2023/01/23 02:36:49;;;;;;;;;;;;;;;-3.20;82.11;102087.38;5061716;28;19928;-74
2023/01/23 02:39:17;;;;;;;;;;;;;;;-3.17;81.94;102091.59;5065731;28;19935;-73
2023/01/23 02:41:48;;;;;;;;;;;;;;;-3.15;82.04;102090.50;5015156;28;20157;-74
2023/01/23 02:44:26;;;;;;;;;;;;;;;-3.12;81.81;102094.75;5030478;28;19976;-73
2023/01/23 02:46:58;;;;;;;;;;;;;;;-3.06;81.98;102099.59;5048346;28;20310;-74
2023/01/23 02:49:26;;;;;;;;;;;;;;;-3.05;81.62;102101.28;5065235;28;20380;-74
2023/01/23 02:51:54;;;;;;;;;;;;;;;-3.05;81.46;102092.38;5033626;28;19936;-74
2023/01/23 02:54:20;;;;;;;;;;;;;;;-3.05;81.36;102095.06;5068187;28;19982;-74
2023/01/23 02:56:46;;;;;;;;;;;;;;;-3.04;81.38;102094.13;5051327;28;20465;-74
2023/01/23 03:01:57;;;;;;;;;;;;;;;-3.18;81.67;102098.78;5068373;28;20374;-70
2023/01/23 03:04:23;;;;;;;;;;;;;;;-3.18;81.85;102098.78;5066023;28;20518;-70
2023/01/23 03:06:49;;;;;;;;;;;;;;;-3.16;81.90;102096.81;5064410;28;19929;-71
2023/01/23 03:09:16;;;;;;;;;;;;;;;-3.22;81.67;102101.84;5046384;28;19982;-71
2023/01/23 03:11:43;;;;;;;;;;;;;;;-3.21;82.02;102104.38;5045775;28;19929;-71
2023/01/23 03:14:11;;;;;;;;;;;;;;;-3.20;82.14;102103.41;5065016;28;19928;-71
2023/01/23 03:16:37;;;;;;;;;;;;;;;-3.21;82.15;102106.22;5064109;28;19928;-70
2023/01/23 03:19:07;;;;;;;;;;;;;;;-3.25;82.01;102100.25;5065293;28;20389;-70
2023/01/23 03:21:33;;;;;;;;;;;;;;;-3.25;82.25;102102.94;5042837;28;19982;-71
2023/01/23 03:23:59;;;;;;;;;;;;;;;-3.17;82.54;102105.84;5043895;28;19935;-70
2023/01/23 03:26:26;;;;;;;;;;;;;;;-3.11;82.25;102101.81;5047206;28;19932;-69
2023/01/23 03:31:37;;;;;;;;;;;;;;;-3.12;82.00;102102.78;5032915;28;19951;-70
2023/01/23 03:34:04;;;;;;;;;;;;;;;-3.15;81.93;102103.88;5048476;28;19928;-69
2023/01/23 03:36:36;;;;;;;;;;;;;;;-3.16;82.03;102110.22;5065581;28;19974;-69
2023/01/23 03:41:47;;;;;;;;;;;;;;;-3.14;81.87;102116.28;5067112;28;19951;-69
2023/01/23 03:44:17;;;;;;;;;;;;;;;-3.31;81.36;102100.78;5064701;28;19950;-69
2023/01/23 03:46:44;;;;;;;;;;;;;;;-3.42;81.89;102107.00;5047131;28;19932;-71
2023/01/23 03:49:11;;;;;;;;;;;;;;;-3.41;81.73;102108.72;5063271;28;19932;-70
2023/01/23 03:51:37;;;;;;;;;;;;;;;-3.40;81.33;102101.53;5046594;28;19975;-70
2023/01/23 03:54:03;;;;;;;;;;;;;;;-3.41;81.15;102108.72;5065278;28;19960;-70
2023/01/23 03:56:29;;;;;;;;;;;;;;;-3.40;80.94;102105.06;5082370;28;19928;-69
2023/01/23 03:58:56;;;;;;;;;;;;;;;-3.47;80.86;102106.53;5067411;28;19989;-69
2023/01/23 04:01:22;;;;;;;;;;;;;;;-3.49;80.94;102100.44;5066348;28;19935;-70
2023/01/23 04:03:48;;;;;;;;;;;;;;;-3.51;80.59;102119.31;5066111;28;20791;-69
2023/01/23 04:06:16;;;;;;;;;;;;;;;-3.57;80.48;102114.44;5064288;28;19939;-69
2023/01/23 04:08:43;;;;;;;;;;;;;;;-3.61;80.53;102115.69;5048532;28;20431;-69
2023/01/23 04:11:10;;;;;;;;;;;;;;;-3.64;80.76;102118.59;5066436;28;19978;-73
2023/01/23 04:13:37;;;;;;;;;;;;;;;-3.58;80.64;102118.97;5033532;28;20362;-73
2023/01/23 04:16:04;;;;;;;;;;;;;;;-3.51;80.70;102121.13;5066862;28;20457;-73
2023/01/23 04:18:30;;;;;;;;;;;;;;;-3.53;80.61;102118.56;5065044;28;19928;-74
2023/01/23 04:20:56;;;;;;;;;;;;;;;-3.49;80.58;102119.19;5065949;28;20054;-73
2023/01/23 04:23:25;;;;;;;;;;;;;;;-3.53;80.64;102115.06;5064123;28;20027;-74
2023/01/23 04:25:51;;;;;;;;;;;;;;;-3.56;80.56;102114.34;5062902;28;20119;-73
2023/01/23 04:28:18;;;;;;;;;;;;;;;-3.58;80.67;102118.09;5060492;28;19935;-69
2023/01/23 04:30:46;;;;;;;;;;;;;;;-3.56;80.69;102116.16;5061744;28;19950;-70
2023/01/23 04:33:19;;;;;;;;;;;;;;;-3.61;80.51;102116.50;5042938;28;20544;-70
2023/01/23 04:35:49;;;;;;;;;;;;;;;-3.53;80.17;102123.09;5034019;28;19932;-70
2023/01/23 04:38:15;;;;;;;;;;;;;;;-3.70;79.90;102102.06;5042048;28;20438;-69
2023/01/23 04:40:42;;;;;;;;;;;;;;;-3.56;79.89;102125.03;5061884;28;19963;-69
2023/01/23 04:43:08;;;;;;;;;;;;;;;-3.57;79.68;102131.38;5063358;28;19928;-71
2023/01/23 04:45:39;;;;;;;;;;;;;;;-3.61;79.72;102131.72;5065713;28;20817;-69
2023/01/23 04:48:24;;;;;;;;;;;;;;;-3.66;79.72;102134.78;5063952;28;20122;-69
2023/01/23 04:50:49;;;;;;;;;;;;;;;-3.66;79.68;102141.97;5065402;28;19929;-70
2023/01/23 04:53:15;;;;;;;;;;;;;;;-3.60;79.74;102141.44;5048423;28;19935;-70
2023/01/23 04:55:45;;;;;;;;;;;;;;;-3.59;79.54;102146.69;5044685;28;19978;-69
2023/01/23 04:58:14;;;;;;;;;;;;;;;-3.55;79.57;102152.63;4715579;28;10000310;-69
2023/01/23 05:00:40;;;;;;;;;;;;;;;-3.53;79.24;102149.84;5079588;28;19928;-69
2023/01/23 05:03:06;;;;;;;;;;;;;;;-3.56;79.26;102153.59;5060167;28;19928;-69
2023/01/23 05:05:32;;;;;;;;;;;;;;;-3.56;79.54;102156.28;5061196;28;20232;-69
2023/01/23 05:08:00;;;;;;;;;;;;;;;-3.63;79.32;102158.59;5061210;28;20323;-69
2023/01/23 05:10:26;;;;;;;;;;;;;;;-3.61;79.64;102161.97;5060135;28;19928;-69
2023/01/23 05:12:56;;;;;;;;;;;;;;;-3.61;79.47;102164.66;5027359;28;19932;-69
2023/01/23 05:15:24;;;;;;;;;;;;;;;-3.63;79.64;102160.44;5044614;28;19929;-69
2023/01/23 05:17:50;;;;;;;;;;;;;;;-3.68;79.43;102162.59;5042879;28;20042;-70
2023/01/23 05:20:16;;;;;;;;;;;;;;;-3.75;79.45;102163.09;5059999;28;20019;-69
2023/01/23 05:22:51;;;;;;;;;;;;;;;-3.79;79.86;102164.31;5044078;28;19982;-69
2023/01/23 05:25:20;;;;;;;;;;;;;;;-3.79;80.03;102164.31;5044497;28;20446;-69
2023/01/23 05:27:46;;;;;;;;;;;;;;;-3.74;79.96;102172.81;5061229;28;19966;-69
2023/01/23 05:30:14;;;;;;;;;;;;;;;-3.70;79.91;102174.28;5064146;28;19943;-72
2023/01/23 05:32:40;;;;;;;;;;;;;;;-3.71;79.77;102177.09;5037988;28;19936;-73
2023/01/23 05:35:16;;;;;;;;;;;;;;;-3.67;79.93;102173.19;5023331;28;19929;-73
2023/01/23 05:37:43;;;;;;;;;;;;;;;-3.63;79.97;102181.81;5042599;28;19928;-69
2023/01/23 05:40:12;;;;;;;;;;;;;;;-3.57;80.33;102181.31;5055264;28;19928;-73
2023/01/23 05:43:05;;;;;;;;;;;;;;;-3.56;80.41;102186.56;5055345;28;20224;-73
2023/01/23 05:45:52;;;;;;;;;;;;;;;-3.55;80.33;102184.72;5047402;28;19932;-73
2023/01/23 05:48:25;;;;;;;;;;;;;;;-3.53;80.08;102188.13;5047483;28;19929;-73
2023/01/23 05:50:51;;;;;;;;;;;;;;;-3.54;79.49;102194.44;5047574;28;19982;-73
2023/01/23 05:53:19;;;;;;;;;;;;;;;-3.51;79.48;102191.53;5043585;28;20014;-73
2023/01/23 05:55:45;;;;;;;;;;;;;;;-3.44;79.21;102191.88;5043316;28;19929;-69
2023/01/23 05:58:13;;;;;;;;;;;;;;;-3.43;79.13;102193.59;5047522;28;19951;-69
2023/01/23 06:00:48;;;;;;;;;;;;;;;-3.43;78.74;102204.31;5056524;28;20387;-69
2023/01/23 06:03:34;;;;;;;;;;;;;;;-3.55;79.00;102198.09;5053699;28;19929;-73
2023/01/23 06:06:20;;;;;;;;;;;;;;;-3.71;79.34;102204.66;5060921;28;20374;-73
2023/01/23 06:08:46;;;;;;;;;;;;;;;-3.74;79.80;102204.91;5058679;28;19929;-73
2023/01/23 06:11:13;;;;;;;;;;;;;;;-3.71;80.01;102204.66;5043418;28;19939;-74
2023/01/23 06:13:40;;;;;;;;;;;;;;;-3.71;79.78;102207.34;5062762;28;19933;-69
2023/01/23 06:16:07;;;;;;;;;;;;;;;-3.73;79.76;102214.63;5061853;28;20497;-73
2023/01/23 06:18:34;;;;;;;;;;;;;;;-3.79;79.59;102215.13;5062925;28;20014;-69
2023/01/23 06:21:05;;;;;;;;;;;;;;;-3.86;80.26;102208.53;5042435;28;19934;-73
2023/01/23 06:23:32;;;;;;;;;;;;;;;-3.93;80.94;102212.69;5055522;28;20425;-73
2023/01/23 06:25:59;;;;;;;;;;;;;;;-3.99;81.25;102214.00;5059441;28;20507;-73
2023/01/23 06:28:25;;;;;;;;;;;;;;;-3.98;81.60;102213.03;5061038;28;19951;-69
2023/01/23 06:30:51;;;;;;;;;;;;;;;-3.95;81.79;102215.47;5069339;28;20471;-69
2023/01/23 06:33:35;;;;;;;;;;;;;;;-3.96;81.72;102205.75;5067548;28;19936;-70
2023/01/23 06:36:04;;;;;;;;;;;;;;;-3.95;81.43;102210.13;5045556;28;20040;-69
2023/01/23 06:38:30;;;;;;;;;;;;;;;-4.05;81.24;102206.47;5040496;28;19932;-69
2023/01/23 06:40:57;;;;;;;;;;;;;;;-4.09;81.40;102215.69;5061406;28;19936;-69
2023/01/23 06:43:31;;;;;;;;;;;;;;;-4.06;81.59;102213.63;5059936;28;20019;-73
2023/01/23 06:45:57;;;;;;;;;;;;;;;-3.96;81.50;102215.59;5060059;28;20035;-73
2023/01/23 06:48:24;;;;;;;;;;;;;;;-3.92;81.34;102225.06;5063442;28;19908;-69
2023/01/23 06:50:51;;;;;;;;;;;;;;;-3.88;81.30;102219.38;5054722;28;20445;-69
2023/01/23 06:53:17;;;;;;;;;;;;;;;-3.81;80.87;102224.22;5062472;28;20438;-73
2023/01/23 06:55:45;;;;;;;;;;;;;;;-3.87;80.65;102214.88;5049712;28;19940;-73
2023/01/23 06:58:13;;;;;;;;;;;;;;;-3.87;80.57;102228.22;5047113;28;19929;-73
2023/01/23 07:00:39;;;;;;;;;;;;;;;-3.85;80.72;102224.47;5060738;28;19943;-69
2023/01/23 07:03:08;;;;;;;;;;;;;;;-3.89;80.57;102204.31;5061683;28;20183;-69
2023/01/23 07:05:36;;;;;;;;;;;;;;;-3.63;80.21;102227.28;5059812;28;20000;-73
2023/01/23 07:08:03;;;;;;;;;;;;;;;-3.69;79.22;102225.94;5028705;28;20706;-69
2023/01/23 07:10:31;;;;;;;;;;;;;;;-3.74;79.17;102222.78;5040341;28;20413;-73
2023/01/23 07:13:00;;;;;;;;;;;;;;;-3.71;78.84;102228.72;5059929;28;20047;-73
2023/01/23 07:15:27;;;;;;;;;;;;;;;-3.66;78.65;102232.88;5038199;28;19929;-73
2023/01/23 07:17:53;;;;;;;;;;;;;;;-3.63;78.55;102228.13;5047333;28;19943;-73
2023/01/23 07:20:19;;;;;;;;;;;;;;;-3.62;78.28;102223.66;5057264;28;19968;-73
2023/01/23 07:22:51;;;;;;;;;;;;;;;-3.71;78.05;102222.53;5058709;28;19932;-69
2023/01/23 07:25:19;;;;;;;;;;;;;;;-3.79;78.11;102219.63;5064176;28;19943;-69
2023/01/23 07:27:44;;;;;;;;;;;;;;;-3.77;78.39;102215.00;5062032;28;19936;-68
2023/01/23 07:30:11;;;;;;;;;;;;;;;-3.72;78.52;102228.88;5054021;28;19929;-69
2023/01/23 07:32:36;;;;;;;;;;;;;;;-3.68;78.08;102221.44;5057042;28;19928;-68
2023/01/23 07:35:02;;;;;;;;;;;;;;;-3.71;77.84;102225.22;5028302;28;19934;-69
2023/01/23 07:37:28;;;;;;;;;;;;;;;-3.73;77.42;102224.50;5066244;28;19928;-73
2023/01/23 07:39:55;;;;;;;;;;;;;;;-3.79;77.46;102224.97;5024135;28;20695;-73
2023/01/23 07:42:22;;;;;;;;;;;;;;;-3.86;77.51;102228.13;5053308;28;19970;-73
2023/01/23 07:44:50;;;;;;;;;;;;;;;-3.85;77.73;102228.97;5041461;28;20039;-73
2023/01/23 07:47:16;;;;;;;;;;;;;;;-3.85;77.69;102237.84;5059681;28;19936;-69
2023/01/23 07:49:42;;;;;;;;;;;;;;;-3.96;77.91;102227.13;5060901;28;19951;-74
2023/01/23 07:52:09;;;;;;;;;;;;;;;-3.92;78.34;102228.59;5043609;28;19959;-69
2023/01/23 07:54:34;;;;;;;;;;;;;;;-3.83;78.25;102220.84;5059845;28;20235;-70
2023/01/23 07:57:00;;;;;;;;;;;;;;;-3.88;78.05;102229.22;5060004;28;20320;-69
2023/01/23 07:59:28;;;;;;;;;;;;;;;-3.96;78.24;102235.16;5062366;28;19939;-69
2023/01/23 08:01:53;;;;;;;;;;;;;;;-4.01;78.50;102221.31;5062960;28;19928;-69
2023/01/23 08:04:20;;;;;;;;;;;;;;;-4.02;78.55;102231.13;5046618;28;19928;-73
2023/01/23 08:06:46;;;;;;;;;;;;;;;-3.95;78.46;102236.00;5061274;28;20340;-74
2023/01/23 08:09:12;;;;;;;;;;;;;;;-3.96;78.26;102239.66;5062960;28;20009;-73
2023/01/23 08:11:39;;;;;;;;;;;;;;;-4.09;78.07;102243.28;5058603;28;20023;-73
2023/01/23 08:14:05;;;;;;;;;;;;;;;-4.06;78.34;102242.16;5064343;28;19929;-73
2023/01/23 08:16:35;;;;;;;;;;;;;;;-4.05;78.33;102242.06;5061876;28;20094;-73
2023/01/23 08:19:01;;;;;;;;;;;;;;;-4.05;78.14;102239.38;5064589;28;20019;-70
2023/01/23 08:21:26;;;;;;;;;;;;;;;-4.08;77.86;102239.63;5044785;28;20019;-69
2023/01/23 08:23:53;;;;;;;;;;;;;;;-4.11;77.95;102250.56;5060118;28;20409;-69
2023/01/23 08:26:19;;;;;;;;;;;;;;;-4.17;77.69;102246.53;5060632;28;19928;-69
2023/01/23 08:28:45;;;;;;;;;;;;;;;-4.15;77.55;102244.59;5043173;28;19938;-73
2023/01/23 08:31:11;;;;;;;;;;;;;;;-4.14;77.38;102245.44;5079433;28;19928;-69
2023/01/23 08:33:39;;;;;;;;;;;;;;;-4.06;77.52;102243.03;5061546;28;20361;-69
2023/01/23 08:36:06;;;;;;;;;;;;;;;-4.07;76.81;102240.47;5077009;28;19932;-73
2023/01/23 08:38:32;;;;;;;;;;;;;;;-4.12;77.07;102238.16;5057312;28;19959;-73
2023/01/23 08:41:02;;;;;;;;;;;;;;;-4.20;77.25;102220.06;5062739;28;20426;-73
2023/01/23 08:43:27;;;;;;;;;;;;;;;-4.02;76.63;102243.66;5059635;28;20407;-74
2023/01/23 08:45:55;;;;;;;;;;;;;;;-4.27;76.46;102226.81;5058592;28;19939;-73
2023/01/23 08:48:22;;;;;;;;;;;;;;;-4.13;76.53;102245.31;5045618;28;20185;-73
2023/01/23 08:50:51;;;;;;;;;;;;;;;-4.15;76.28;102246.41;5048423;28;20023;-73
2023/01/23 08:53:18;;;;;;;;;;;;;;;-4.18;76.13;102243.97;5100056;28;19935;-69
2023/01/23 08:55:43;;;;;;;;;;;;;;;-4.11;76.39;102247.03;5077258;28;20315;-69
2023/01/23 08:58:11;;;;;;;;;;;;;;;-4.11;76.05;102250.56;5061238;28;19939;-69
2023/01/23 09:00:37;;;;;;;;;;;;;;;-4.04;76.14;102246.44;5062418;28;20126;-69
2023/01/23 09:03:03;;;;;;;;;;;;;;;-3.95;75.76;102250.22;5061586;28;19955;-69
2023/01/23 09:05:29;;;;;;;;;;;;;;;-3.95;76.00;102244.88;5029191;28;19936;-69
2023/01/23 09:07:57;;;;;;;;;;;;;;;-3.85;76.00;102240.53;5059929;28;19932;-69
2023/01/23 09:10:24;;;;;;;;;;;;;;;-3.84;75.83;102254.72;5059118;28;19974;-71
2023/01/23 09:12:53;;;;;;;;;;;;;;;-3.83;75.52;102256.44;5062517;28;20422;-73
2023/01/23 09:15:20;;;;;;;;;;;;;;;-3.88;75.53;102253.28;5061764;28;20442;-74
2023/01/23 09:17:46;;;;;;;;;;;;;;;-3.94;75.71;102245.72;5059079;28;19932;-73
2023/01/23 09:20:12;;;;;;;;;;;;;;;-4.04;76.30;102248.28;5059184;28;19988;-73
2023/01/23 09:22:38;;;;;;;;;;;;;;;-4.03;76.30;102258.00;5057917;28;19935;-73
2023/01/23 09:25:06;;;;;;;;;;;;;;;-3.98;76.37;102266.50;5054226;28;19928;-73
2023/01/23 09:27:32;;;;;;;;;;;;;;;-3.97;76.16;102251.31;5058758;28;19932;-74
2023/01/23 09:29:57;;;;;;;;;;;;;;;-3.99;76.12;102243.41;5054342;28;19935;-68
2023/01/23 09:32:23;;;;;;;;;;;;;;;-4.08;76.27;102260.16;5060763;28;19928;-69
2023/01/23 09:34:49;;;;;;;;;;;;;;;-4.15;76.36;102254.41;5077749;28;19929;-69
2023/01/23 09:37:15;;;;;;;;;;;;;;;-4.23;76.69;102240.81;5037308;28;19928;-69
2023/01/23 09:39:41;;;;;;;;;;;;;;;-4.20;76.90;102240.56;5060566;28;19929;-69
2023/01/23 09:42:14;;;;;;;;;;;;;;;-4.20;77.11;102232.56;5064854;28;19961;-73
2023/01/23 09:44:43;;;;;;;;;;;;;;;-4.14;77.48;102230.25;5024087;28;19986;-73
2023/01/23 09:47:12;;;;;;;;;;;;;;;-4.07;77.40;102232.44;5038480;28;19956;-73
2023/01/23 09:49:41;;;;;;;;;;;;;;;-4.14;77.22;102232.06;5042633;28;19936;-73
2023/01/23 09:52:11;;;;;;;;;;;;;;;-4.09;77.33;102223.69;5047957;28;20055;-73
2023/01/23 09:54:43;;;;;;;;;;;;;;;-4.07;77.13;102227.09;5024219;28;19935;-73
2023/01/23 09:57:15;;;;;;;;;;;;;;;-3.91;76.93;102229.44;5059719;28;20019;-73
2023/01/23 09:59:45;;;;;;;;;;;;;;;-3.78;75.63;102224.84;5062129;28;19928;-73
2023/01/23 10:02:14;;;;;;;;;;;;;;;-3.79;75.56;102225.81;5044707;28;19928;-69
2023/01/23 10:04:40;;;;;;;;;;;;;;;-3.73;75.46;102224.50;5062115;28;19933;-69
2023/01/23 10:07:21;;;;;;;;;;;;;;;-3.59;75.05;102218.91;5061890;28;19954;-69
2023/01/23 10:09:55;;;;;;;;;;;;;;;-3.44;74.85;102216.81;5057248;28;19982;-69
2023/01/23 10:12:31;;;;;;;;;;;;;;;-3.48;73.87;102226.06;5042614;28;19929;-69
2023/01/23 10:15:06;;;;;;;;;;;;;;;-3.61;73.89;102214.66;5058586;28;19978;-69
2023/01/23 10:17:36;;;;;;;;;;;;;;;-3.66;74.09;102209.66;5060926;28;19935;-70
2023/01/23 10:20:13;;;;;;;;;;;;;;;-3.61;73.77;102210.13;5079948;28;19934;-69
2023/01/23 10:22:45;;;;;;;;;;;;;;;-3.51;73.72;102209.41;5060068;28;19928;-73
2023/01/23 10:25:13;;;;;;;;;;;;;;;-3.40;73.48;102213.88;5026561;28;19935;-73
2023/01/23 10:27:43;;;;;;;;;;;;;;;-3.38;73.16;102220.84;5043465;28;20399;-73
2023/01/23 10:30:17;;;;;;;;;;;;;;;-3.37;72.57;102227.88;5064587;28;19928;-73
2023/01/23 10:32:45;;;;;;;;;;;;;;;-3.38;72.53;102222.66;5067639;28;20252;-73
2023/01/23 10:35:13;;;;;;;;;;;;;;;-3.31;72.81;102224.69;5060328;28;20414;-73
2023/01/23 10:37:41;;;;;;;;;;;;;;;-3.33;72.22;102223.97;5059494;28;20024;-73
2023/01/23 10:40:11;;;;;;;;;;;;;;;-3.36;72.11;102224.22;5065920;28;19928;-73
2023/01/23 10:42:37;;;;;;;;;;;;;;;-3.38;72.35;102228.84;5062572;28;19939;-73
2023/01/23 10:45:06;;;;;;;;;;;;;;;-3.50;72.46;102222.69;5053620;28;19935;-73
2023/01/23 10:47:34;;;;;;;;;;;;;;;-3.47;72.58;102219.75;5062668;28;19928;-69
2023/01/23 10:50:00;;;;;;;;;;;;;;;-3.45;72.35;102216.94;5057757;28;20311;-69
2023/01/23 10:52:28;;;;;;;;;;;;;;;-3.46;72.44;102218.78;5059772;28;20002;-69
2023/01/23 10:54:54;;;;;;;;;;;;;;;-3.53;72.64;102217.53;5056892;28;19978;-69
2023/01/23 10:57:22;;;;;;;;;;;;;;;-3.49;72.95;102212.81;5059408;28;19928;-69
2023/01/23 10:59:52;;;;;;;;;;;;;;;-3.47;73.16;102217.06;5063325;28;20318;-69
2023/01/23 11:02:21;;;;;;;;;;;;;;;-3.40;72.97;102216.56;5067368;28;20410;-69
2023/01/23 11:04:47;;;;;;;;;;;;;;;-3.30;72.97;102206.84;5059846;28;19935;-69
2023/01/23 11:07:14;;;;;;;;;;;;;;;-3.26;72.41;102210.97;5064558;28;19983;-69
2023/01/23 11:09:47;;;;;;;;;;;;;;;-3.29;72.66;102206.69;5068900;28;19956;-69
2023/01/23 11:12:15;;;;;;;;;;;;;;;-3.27;72.87;102203.91;5062773;28;19935;-69
2023/01/23 11:14:40;;;;;;;;;;;;;;;-3.36;72.93;102210.00;5055620;28;19933;-69
2023/01/23 11:17:13;;;;;;;;;;;;;;;-3.34;73.23;102192.84;5059962;28;19928;-69
2023/01/23 11:19:40;;;;;;;;;;;;;;;-3.33;73.33;102196.38;5059673;28;20485;-69
2023/01/23 11:22:22;;;;;;;;;;;;;;;-3.26;73.80;102192.22;5065033;28;19932;-69
2023/01/23 11:24:47;;;;;;;;;;;;;;;-3.16;73.52;102197.66;5060788;28;19944;-69
2023/01/23 11:27:18;;;;;;;;;;;;;;;-3.18;73.76;102200.50;5058583;28;19929;-70
2023/01/23 11:29:54;;;;;;;;;;;;;;;-3.22;73.80;102196.34;5062199;28;20334;-69
2023/01/23 11:32:22;;;;;;;;;;;;;;;-3.20;74.00;102202.44;5060462;28;19929;-69
2023/01/23 11:34:52;;;;;;;;;;;;;;;-3.21;73.97;102207.91;5063623;28;20020;-69
2023/01/23 11:37:20;;;;;;;;;;;;;;;-3.22;74.22;102208.88;5065843;28;19936;-69
2023/01/23 11:39:49;;;;;;;;;;;;;;;-3.22;74.13;102203.53;5060664;28;19954;-69
2023/01/23 11:42:16;;;;;;;;;;;;;;;-3.15;74.41;102207.41;5053174;28;20028;-73
2023/01/23 11:44:43;;;;;;;;;;;;;;;-3.13;74.51;102203.63;5056823;28;19928;-73
2023/01/23 11:47:15;;;;;;;;;;;;;;;-3.11;74.39;102206.19;5060062;28;20038;-73
2023/01/23 11:50:03;;;;;;;;;;;;;;;-3.12;74.79;102209.84;5055956;28;20005;-72
2023/01/23 11:52:36;;;;;;;;;;;;;;;-3.11;74.86;102205.34;5043752;28;20403;-73
2023/01/23 11:55:12;;;;;;;;;;;;;;;-3.08;74.74;102218.47;5059872;28;20307;-73
2023/01/23 11:57:45;;;;;;;;;;;;;;;-3.17;74.86;102204.00;5058183;28;20380;-73
2023/01/23 12:00:20;;;;;;;;;;;;;;;-3.14;75.35;102206.44;5065207;28;19929;-68
2023/01/23 12:03:13;;;;;;;;;;;;;;;-3.10;75.15;102207.91;5076193;28;20039;-69
2023/01/23 12:05:50;;;;;;;;;;;;;;;-3.07;75.34;102206.78;5040096;28;19983;-69
2023/01/23 12:08:20;;;;;;;;;;;;;;;-3.05;75.05;102203.00;5059079;28;19929;-69
2023/01/23 12:10:52;;;;;;;;;;;;;;;-3.15;75.36;102213.63;5065132;28;19937;-69
2023/01/23 12:13:28;;;;;;;;;;;;;;;-3.21;75.65;102205.22;5057186;28;20019;-73
2023/01/23 12:16:04;;;;;;;;;;;;;;;-3.18;75.79;102211.19;5046478;28;20393;-73
2023/01/23 12:18:37;;;;;;;;;;;;;;;-3.09;76.00;102212.28;5064148;28;20034;-73
2023/01/23 12:21:09;;;;;;;;;;;;;;;-3.07;75.64;102214.81;5045561;28;20019;-73
2023/01/23 12:23:44;;;;;;;;;;;;;;;-3.04;75.66;102215.41;5064809;28;19928;-70
2023/01/23 12:26:12;;;;;;;;;;;;;;;-3.07;75.93;102201.41;5046666;28;19935;-73
2023/01/23 12:28:53;;;;;;;;;;;;;;;-3.06;75.99;102209.34;5064945;28;20251;-69
2023/01/23 12:31:26;;;;;;;;;;;;;;;-3.07;75.95;102204.09;5062956;28;19928;-69
2023/01/23 12:33:59;;;;;;;;;;;;;;;-3.09;76.03;102209.59;5061638;28;19928;-69
2023/01/23 12:36:36;;;;;;;;;;;;;;;-3.09;76.30;102200.69;5025726;28;20026;-69
2023/01/23 12:39:10;;;;;;;;;;;;;;;-3.10;76.27;102204.34;5063392;28;20395;-69
2023/01/23 12:41:39;;;;;;;;;;;;;;;-3.11;76.47;102197.31;5059850;28;19929;-69
2023/01/23 12:44:11;;;;;;;;;;;;;;;-3.17;76.63;102196.84;5052478;28;19935;-70
2023/01/23 12:46:40;;;;;;;;;;;;;;;-3.32;76.72;102171.31;5032599;28;19933;-69
2023/01/23 12:49:13;;;;;;;;;;;;;;;-3.23;76.86;102193.81;5057187;28;20391;-69
2023/01/23 12:51:42;;;;;;;;;;;;;;;-3.30;77.16;102190.78;5039761;28;19943;-69